Etusivu
METAR-TAF:

METAR-TAF

Lentoasemat :

Sapporo, Japani

Leveyspiiri: 43-07N, Pituuspiiri: 141-23E, korkeus merenpinnasta: 8 m

Tämänhetkinen sää

Tämä raportti tehtiin 32 minuuttia sitten, kello 07.00 UTC
Tuuli 22 kn luoteesta
Lämpötila 7°C
Kosteus 66%
Ilmanpaine 1006 hPa
Näkyvyys 10 km tai enemmän
Muutamia pilviä 1000 ft:n korkeudessa
Hajanaisia pilviä 2500 ft:n korkeudessa
Hajonneita pilviä 18000 ft:n korkeudessa

METAR: RJCO 020700Z 31022KT 9999 FEW010 SCT025 BKN180 07/01 Q1006

Aika: 16:32 (07:32 UTC)


TAF: puuttuu

Säähavainnot ja -ennusteet yli 4000 lentoasemalta (METAR- ja TAF-raportit).

Käytössä olevat sääasemat on merkitty karttaan keltaisilla ja punaisilla pisteillä.

Aseta hiiri pisteen päälle nähdäksesi sääaseman nimen.

Klikkaa sitten nähdäksesi säähavainnot ja -ennusteet.

Kartan vaihtaminen: klikkaa mustalla rastilla varustettuja vihreitä pisteitä, niin voit zoomata sisään; viivalla varustettua vihreää pistettä, niin voit zoomata ulos tai vihreitä nuolia, niin pääset viereisille kartoille.


METAR-TAF: